Time;durP1;ratioP1;P1;durP2;ratioP2;P2;SDS_P1;SDS_P2;PMS_P1;PMS_P2;Temp;Humidity;BMP_temperature;BMP_pressure;BME280_temperature;BME280_humidity;BME280_pressure;Samples;Min_cycle;Max_cycle;Signal;HPM_P1;HPM_P2
2022/07/20 00:00:21;;;;;;;6.60;3.63;;;;;;;24.09;45.28;69456.81;5086695;28;20036;-89
2022/07/20 00:02:46;;;;;;;7.97;3.70;;;;;;;24.05;45.49;69457.69;5062460;28;20093;-89
2022/07/20 00:05:12;;;;;;;6.20;4.05;;;;;;;24.05;45.08;69454.97;5068120;28;20040;-89
2022/07/20 00:07:37;;;;;;;9.35;3.92;;;;;;;24.15;43.66;69468.56;5070548;28;20059;-89
2022/07/20 00:12:47;;;;;;;7.20;3.47;;;;;;;24.26;43.27;69475.72;5066769;28;20059;-89
2022/07/20 00:15:13;;;;;;;7.20;4.03;;;;;;;24.29;43.95;69478.59;5048513;28;21117;-89
2022/07/20 00:17:38;;;;;;;6.10;3.60;;;;;;;;;;5061264;28;21257;-89
2022/07/20 00:20:04;;;;;;;8.20;3.70;;;;;;;;;;5049771;28;20255;-88
2022/07/20 00:22:29;;;;;;;6.70;3.63;;;;;;;24.32;42.76;69484.75;5066245;28;20290;-90
2022/07/20 00:24:57;;;;;;;10.57;3.85;;;;;;;24.42;42.15;69496.22;5063828;28;20044;-88
2022/07/20 00:27:23;;;;;;;4.95;3.58;;;;;;;;;;5066025;28;20051;-89
2022/07/20 00:29:48;;;;;;;7.07;3.70;;;;;;;24.42;42.77;69488.06;5082771;28;20032;-89
2022/07/20 00:32:13;;;;;;;7.45;3.55;;;;;;;24.34;41.99;69484.34;5068135;28;20028;-89
2022/07/20 00:34:39;;;;;;;7.60;3.97;;;;;;;;;;5087001;28;20127;-90
2022/07/20 00:37:04;;;;;;;9.07;3.72;;;;;;;;;;5083355;28;20109;-89
2022/07/20 00:39:29;;;;;;;6.53;3.80;;;;;;;;;;5059159;28;20520;-89
2022/07/20 00:41:55;;;;;;;7.22;3.90;;;;;;;24.36;41.65;69486.63;5080113;28;20341;-89
2022/07/20 00:44:20;;;;;;;7.15;3.80;;;;;;;24.36;41.72;69486.63;5061027;28;20040;-89
2022/07/20 00:46:47;;;;;;;6.18;3.72;;;;;;;24.37;41.57;69490.50;5078747;28;20103;-89
2022/07/20 00:49:13;;;;;;;8.55;3.92;;;;;;;24.42;41.71;69493.50;5065477;28;20078;-89
2022/07/20 00:51:42;;;;;;;8.77;4.20;;;;;;;24.39;41.04;69490.06;5067354;28;20036;-90
2022/07/20 00:54:08;;;;;;;6.53;3.72;;;;;;;24.30;41.45;69483.03;5065861;28;20187;-89
2022/07/20 00:56:35;;;;;;;5.65;3.80;;;;;;;24.32;40.54;69482.03;5067183;28;20319;-90
2022/07/20 00:59:04;;;;;;;7.93;3.58;;;;;;;;;;5066002;28;20047;-89
2022/07/20 01:01:32;;;;;;;5.18;3.47;;;;;;;24.42;40.22;69492.94;5067279;28;20044;-89
2022/07/20 01:03:58;;;;;;;5.95;3.72;;;;;;;24.44;40.00;69495.81;5068429;28;20036;-89
2022/07/20 01:06:27;;;;;;;8.20;4.18;;;;;;;24.46;40.14;69500.28;5046372;28;20037;-88
2022/07/20 01:08:52;;;;;;;7.38;3.38;;;;;;;24.44;40.23;69495.81;5067286;28;20146;-89
2022/07/20 01:11:18;;;;;;;10.55;4.28;;;;;;;24.40;40.49;69485.78;5063787;28;20048;-89
2022/07/20 01:13:43;;;;;;;5.55;3.47;;;;;;;24.42;40.18;69492.94;5067208;28;20116;-89
2022/07/20 01:16:09;;;;;;;6.38;3.90;;;;;;;24.45;39.67;69496.38;5073038;28;20134;-89
2022/07/20 01:18:35;;;;;;;7.10;4.00;;;;;;;24.39;39.91;69484.63;5081573;28;20047;-90
2022/07/20 01:21:02;;;;;;;6.72;3.95;;;;;;;24.42;39.53;69488.06;5083891;28;20051;-90
2022/07/20 01:23:28;;;;;;;8.25;3.85;;;;;;;24.42;39.78;69492.94;5067416;28;20039;-89
2022/07/20 01:25:53;;;;;;;7.65;4.35;;;;;;;24.41;40.03;69492.34;5085490;28;20040;-91
2022/07/20 01:28:19;;;;;;;9.18;3.88;;;;;;;24.40;39.79;69490.63;5067904;28;20472;-88
2022/07/20 01:30:44;;;;;;;8.75;4.00;;;;;;;24.36;39.79;69489.34;5089990;28;20036;-89
2022/07/20 01:33:10;;;;;;;5.22;3.80;;;;;;;24.39;39.90;69490.06;5076389;28;20036;-90
2022/07/20 01:35:35;;;;;;;6.60;3.92;;;;;;;;;;5091394;28;20040;-88
2022/07/20 01:38:00;;;;;;;7.68;3.90;;;;;;;24.37;39.81;69487.19;5094506;22;20036;-79
2022/07/20 01:40:26;;;;;;;7.57;3.88;;;;;;;;;;5099410;28;20044;-79
2022/07/20 01:42:51;;;;;;;8.10;3.90;;;;;;;;;;5098626;28;20051;-81
2022/07/20 01:45:16;;;;;;;6.10;4.20;;;;;;;;;;5101341;28;20270;-80
2022/07/20 01:47:42;;;;;;;6.78;3.85;;;;;;;24.24;40.11;69473.44;5097588;28;20090;-81
2022/07/20 01:50:07;;;;;;;9.23;3.80;;;;;;;24.23;39.93;69471.72;5080709;28;20037;-80
2022/07/20 01:52:33;;;;;;;9.25;3.97;;;;;;;;;;5080111;28;20032;-80
2022/07/20 01:54:58;;;;;;;8.73;3.92;;;;;;;24.17;40.26;69465.41;5081484;28;20044;-79
2022/07/20 01:57:23;;;;;;;6.63;4.03;;;;;;;;;;5081556;28;20049;-80
2022/07/20 01:59:49;;;;;;;6.10;4.17;;;;;;;;;;5080889;28;20044;-79
2022/07/20 02:02:14;;;;;;;8.30;3.55;;;;;;;24.21;39.60;69469.44;5078921;28;20876;-79
2022/07/20 02:04:40;;;;;;;8.07;4.32;;;;;;;24.19;39.40;69467.13;5078295;28;20055;-80
2022/07/20 02:07:05;;;;;;;7.30;3.80;;;;;;;24.18;40.29;69466.56;5080968;28;20079;-79
2022/07/20 02:09:30;;;;;;;5.95;3.70;;;;;;;24.14;40.11;69461.38;5081076;28;20311;-80
2022/07/20 02:11:56;;;;;;;7.82;4.03;;;;;;;24.10;40.27;69457.94;5079826;28;20052;-79
2022/07/20 02:14:21;;;;;;;6.97;4.38;;;;;;;24.09;40.27;69456.81;5080113;28;20131;-80
2022/07/20 02:16:47;;;;;;;5.65;3.97;;;;;;;;;;5081487;28;20036;-79
2022/07/20 02:19:12;;;;;;;6.30;4.20;;;;;;;23.99;40.18;69445.34;5080823;28;20028;-81
2022/07/20 02:21:37;;;;;;;6.00;4.50;;;;;;;23.98;40.24;69446.91;5082706;28;20267;-79
2022/07/20 02:24:03;;;;;;;8.90;4.18;;;;;;;23.97;40.48;69442.50;5080189;28;20036;-80
2022/07/20 02:26:29;;;;;;;7.13;4.00;;;;;;;23.94;40.39;69434.19;5081551;28;20041;-80
2022/07/20 02:28:55;;;;;;;7.13;4.22;;;;;;;23.93;40.30;69438.47;5077524;28;20048;-80
2022/07/20 02:31:21;;;;;;;6.28;4.30;;;;;;;23.92;40.55;69437.31;5081989;28;20052;-79
2022/07/20 02:33:47;;;;;;;5.90;4.20;;;;;;;23.89;40.49;69433.88;5081050;28;20060;-80
2022/07/20 02:36:13;;;;;;;6.28;4.18;;;;;;;23.89;40.38;69433.88;5078453;28;20042;-81
2022/07/20 02:38:39;;;;;;;7.43;3.90;;;;;;;23.87;40.48;69431.59;5078368;28;20044;-79
2022/07/20 02:41:05;;;;;;;6.75;4.13;;;;;;;23.82;40.85;69425.84;5078410;28;20029;-80
2022/07/20 02:43:31;;;;;;;8.38;4.40;;;;;;;23.79;40.86;69422.41;5082695;28;20066;-80
2022/07/20 02:45:56;;;;;;;9.02;4.07;;;;;;;;;;5062618;28;20107;-80
2022/07/20 02:48:21;;;;;;;8.37;4.10;;;;;;;23.76;40.88;69422.25;5080702;28;20144;-81
2022/07/20 02:50:47;;;;;;;7.00;4.20;;;;;;;23.77;40.67;69420.69;5078279;28;20299;-80
2022/07/20 02:53:13;;;;;;;8.02;4.50;;;;;;;23.74;40.58;69417.25;5062122;28;20074;-80
2022/07/20 02:55:41;;;;;;;6.63;4.13;;;;;;;23.73;41.10;69416.09;5078321;28;20036;-79
2022/07/20 02:58:07;;;;;;;7.15;4.35;;;;;;;23.73;41.23;69415.53;5079254;28;20044;-79
2022/07/20 03:00:32;;;;;;;7.28;4.28;;;;;;;23.71;41.08;69415.97;5079522;28;20036;-79
2022/07/20 03:02:58;;;;;;;8.00;3.90;;;;;;;23.64;41.40;69408.50;5076854;28;20551;-82
2022/07/20 03:05:24;;;;;;;6.00;4.35;;;;;;;23.64;41.10;69406.34;5080785;28;20043;-82
2022/07/20 03:07:50;;;;;;;8.10;4.57;;;;;;;23.60;41.36;69403.91;5074896;28;20040;-82
2022/07/20 03:10:15;;;;;;;7.72;4.10;;;;;;;23.58;41.29;69399.47;5073407;28;20128;-82
2022/07/20 03:12:40;;;;;;;7.95;4.35;;;;;;;23.59;41.29;69403.34;5074000;28;20032;-82
2022/07/20 03:15:07;;;;;;;5.25;4.00;;;;;;;23.56;41.32;69402.63;5074822;28;20039;-82
2022/07/20 03:17:32;;;;;;;5.63;4.18;;;;;;;23.57;41.47;69398.34;5092110;22;20829;-87
2022/07/20 03:19:57;;;;;;;7.28;4.32;;;;;;;;;;5032625;28;20084;-88
2022/07/20 03:22:23;;;;;;;5.50;4.13;;;;;;;23.59;41.03;69400.03;5074309;28;20045;-87
2022/07/20 03:24:48;;;;;;;8.95;4.60;;;;;;;23.54;41.12;69394.31;5075149;28;20169;-87
2022/07/20 03:27:14;;;;;;;6.43;3.95;;;;;;;23.52;41.50;69392.03;5074271;28;20040;-88
2022/07/20 03:29:39;;;;;;;8.43;3.78;;;;;;;;;;5074533;28;20068;-87
2022/07/20 03:32:05;;;;;;;7.80;3.73;;;;;;;;;;5054343;28;20048;-88
2022/07/20 03:34:31;;;;;;;8.02;4.03;;;;;;;23.46;41.71;69380.28;5073599;28;20310;-87
2022/07/20 03:36:56;;;;;;;7.72;4.00;;;;;;;23.44;41.45;69386.13;5060215;28;20041;-87
2022/07/20 03:39:22;;;;;;;6.15;4.30;;;;;;;23.45;41.50;69379.16;5046780;28;20182;-87
2022/07/20 03:41:47;;;;;;;8.23;4.45;;;;;;;23.44;41.34;69383.41;5048523;28;20049;-87
2022/07/20 03:44:13;;;;;;;9.48;4.18;;;;;;;23.42;41.74;69375.72;5047370;28;20512;-86
2022/07/20 03:46:38;;;;;;;8.13;4.10;;;;;;;;;;5028181;28;20086;-87
2022/07/20 03:49:04;;;;;;;6.00;4.07;;;;;;;23.33;42.27;69371.41;5042418;28;20560;-87
2022/07/20 03:51:29;;;;;;;6.28;4.03;;;;;;;23.34;42.24;69377.41;5040967;28;20387;-87
2022/07/20 03:53:54;;;;;;;6.35;4.05;;;;;;;23.32;41.81;69369.69;5048304;28;20127;-87
2022/07/20 03:56:20;;;;;;;6.75;4.60;;;;;;;23.31;41.93;69369.09;5044046;28;20052;-86
2022/07/20 03:58:46;;;;;;;6.25;4.20;;;;;;;23.31;42.41;69368.53;5048010;28;20469;-85
2022/07/20 04:01:11;;;;;;;8.15;4.22;;;;;;;23.33;41.86;69370.81;5042723;28;20100;-87
2022/07/20 04:03:37;;;;;;;8.52;4.40;;;;;;;23.34;41.79;69375.25;5042996;28;20068;-87
2022/07/20 04:06:02;;;;;;;6.15;3.97;;;;;;;;;;5029795;28;20033;-87
2022/07/20 04:08:28;;;;;;;8.25;4.30;;;;;;;23.36;42.02;69374.84;5047064;28;20048;-87
2022/07/20 04:10:53;;;;;;;8.77;4.03;;;;;;;23.33;42.13;69370.81;5028593;28;20120;-87
2022/07/20 04:13:19;;;;;;;7.07;4.25;;;;;;;23.32;42.53;69369.69;5047767;28;20401;-87
2022/07/20 04:15:44;;;;;;;5.85;4.53;;;;;;;;;;5030423;28;20033;-87
2022/07/20 04:18:09;;;;;;;9.50;4.47;;;;;;;23.29;42.35;69366.25;5065408;28;20044;-87
2022/07/20 04:20:35;;;;;;;6.28;4.25;;;;;;;23.20;42.70;69356.50;5047209;28;20280;-87
2022/07/20 04:23:00;;;;;;;7.88;4.70;;;;;;;23.13;43.16;69343.63;5048626;28;20060;-87
2022/07/20 04:25:25;;;;;;;9.35;4.38;;;;;;;23.11;43.40;69352.19;5045564;28;20586;-87
2022/07/20 04:27:51;;;;;;;6.18;4.45;;;;;;;;;;5048239;28;20064;-87
2022/07/20 04:30:16;;;;;;;8.48;4.25;;;;;;;23.10;44.25;69345.03;5045170;28;20033;-87
2022/07/20 04:32:43;;;;;;;6.60;4.43;;;;;;;23.12;43.76;69347.34;5042913;28;20052;-87
2022/07/20 04:35:09;;;;;;;7.07;4.20;;;;;;;23.06;44.31;69341.03;5028930;28;20045;-87
2022/07/20 04:37:35;;;;;;;5.18;3.78;;;;;;;;;;5048345;28;20457;-86
2022/07/20 04:40:01;;;;;;;9.60;4.13;;;;;;;23.01;44.83;69337.44;5029107;28;20312;-87
2022/07/20 04:42:26;;;;;;;7.72;4.32;;;;;;;;;;5028639;28;20474;-88
2022/07/20 04:44:51;;;;;;;6.57;4.20;;;;;;;22.99;45.02;69333.03;5028613;28;20129;-88
2022/07/20 04:47:17;;;;;;;7.28;4.47;;;;;;;22.97;44.79;69334.00;5043069;28;20275;-88
2022/07/20 04:49:42;;;;;;;6.82;4.15;;;;;;;23.10;44.42;69345.63;5031526;28;20045;-87
2022/07/20 04:52:07;;;;;;;10.20;4.20;;;;;;;23.14;44.01;69352.34;5046867;28;20111;-87
2022/07/20 04:54:33;;;;;;;8.70;4.53;;;;;;;23.20;43.80;69359.22;5048185;28;20041;-87
2022/07/20 04:56:59;;;;;;;7.05;3.95;;;;;;;23.27;44.51;69366.66;5029259;28;20041;-87
2022/07/20 04:59:25;;;;;;;6.20;3.78;;;;;;;;;;5048608;28;20044;-87
2022/07/20 05:01:50;;;;;;;8.10;4.13;;;;;;;23.32;44.23;69369.69;5048885;28;20045;-86
2022/07/20 05:04:15;;;;;;;7.60;4.18;;;;;;;;;;5048499;28;20290;-87
2022/07/20 05:06:41;;;;;;;7.32;4.07;;;;;;;23.48;43.75;69388.03;5035295;28;20087;-87
2022/07/20 05:09:07;;;;;;;6.65;3.72;;;;;;;23.56;43.29;69397.19;5050269;28;20124;-86
2022/07/20 05:11:33;;;;;;;9.93;4.30;;;;;;;23.65;43.29;69410.22;5032012;28;20041;-87
2022/07/20 05:13:59;;;;;;;8.02;4.68;;;;;;;23.75;43.19;69412.97;5049276;28;20048;-87
2022/07/20 05:16:24;;;;;;;8.93;4.07;;;;;;;23.82;42.98;69420.41;5049620;28;20128;-87
2022/07/20 05:18:50;;;;;;;7.50;4.20;;;;;;;23.94;42.40;69442.34;5027694;28;20144;-86
2022/07/20 05:21:15;;;;;;;6.13;4.00;;;;;;;;;;5028225;28;20559;-87
2022/07/20 05:23:40;;;;;;;6.33;3.87;;;;;;;24.12;42.36;69459.13;5046287;28;20061;-87
2022/07/20 05:26:06;;;;;;;6.60;3.95;;;;;;;;;;5045594;28;20284;-87
2022/07/20 05:28:31;;;;;;;5.77;4.03;;;;;;;24.24;41.85;69472.88;5047974;28;20420;-87
2022/07/20 05:30:56;;;;;;;10.52;4.63;;;;;;;;;;5029074;28;20363;-87
2022/07/20 05:33:22;;;;;;;8.27;4.40;;;;;;;24.35;42.02;69479.47;5046775;28;20151;-86
2022/07/20 05:35:49;;;;;;;9.30;4.07;;;;;;;;;;5046858;28;20072;-87
2022/07/20 05:38:15;;;;;;;6.30;4.10;;;;;;;24.42;42.32;69493.50;5044948;28;20033;-87
2022/07/20 05:40:40;;;;;;;7.75;4.68;;;;;;;24.47;42.36;69498.69;5035688;28;20447;-87
2022/07/20 05:43:06;;;;;;;7.57;4.72;;;;;;;24.51;42.48;69503.25;5047614;28;20032;-87
2022/07/20 05:45:31;;;;;;;8.43;4.32;;;;;;;24.53;41.83;69500.69;5043328;28;20250;-87
2022/07/20 05:47:57;;;;;;;8.32;4.15;;;;;;;;;;5046454;28;20133;-87
2022/07/20 05:50:22;;;;;;;12.13;4.60;;;;;;;24.62;42.04;69515.88;5026070;28;20476;-87
2022/07/20 05:52:47;;;;;;;8.48;4.90;;;;;;;24.68;41.68;69514.03;5028171;28;20311;-86
2022/07/20 05:55:13;;;;;;;10.25;4.70;;;;;;;24.71;41.91;69520.75;5044441;28;20128;-87
2022/07/20 05:57:38;;;;;;;8.63;4.68;;;;;;;;;;5027831;28;20048;-87
2022/07/20 06:00:04;;;;;;;11.93;4.83;;;;;;;24.79;41.68;69534.81;5028091;28;20267;-87
2022/07/20 06:02:29;;;;;;;6.65;4.32;;;;;;;24.83;41.86;69542.13;5042100;28;20325;-90
2022/07/20 06:04:55;;;;;;;7.32;4.53;;;;;;;24.88;41.37;69539.13;5030012;28;20459;-90
2022/07/20 06:07:20;;;;;;;12.65;5.28;;;;;;;24.92;41.89;69549.72;5029264;28;20412;-91
2022/07/20 06:09:46;;;;;;;8.00;4.90;;;;;;;24.93;41.64;69550.88;5029529;28;20123;-90
2022/07/20 06:12:11;;;;;;;9.77;5.20;;;;;;;;;;5045131;28;20051;-90
2022/07/20 06:14:36;;;;;;;12.27;5.07;;;;;;;;;;5047599;28;20420;-90
2022/07/20 06:17:01;;;;;;;13.73;5.37;;;;;;;25.06;42.25;69559.19;5048077;28;20307;-90
2022/07/20 06:19:27;;;;;;;8.45;5.38;;;;;;;25.03;42.52;69556.34;5047073;28;20279;-91
2022/07/20 06:21:53;;;;;;;9.35;5.75;;;;;;;;;;5047150;28;20127;-91
2022/07/20 06:24:18;;;;;;;10.98;6.47;;;;;;;25.03;43.43;69556.34;5051458;28;20029;-90
2022/07/20 06:26:45;;;;;;;12.82;6.95;;;;;;;25.04;43.83;69562.94;5049805;28;20048;-90
2022/07/20 06:29:10;;;;;;;13.23;7.32;;;;;;;25.09;44.53;69562.63;5048441;28;20517;-90
2022/07/20 06:31:36;;;;;;;17.23;8.60;;;;;;;25.14;45.62;69565.66;5048932;28;20036;-91
2022/07/20 06:34:02;;;;;;;17.05;9.93;;;;;;;25.21;46.22;69581.88;5048733;28;20068;-90
2022/07/20 06:36:28;;;;;;;16.13;10.80;;;;;;;;;;5047091;28;20029;-90
2022/07/20 06:38:54;;;;;;;15.07;10.60;;;;;;;;;;5049049;28;20398;-90
2022/07/20 06:41:19;;;;;;;19.45;12.30;;;;;;;25.04;49.25;69562.94;5030698;28;20037;-90
2022/07/20 06:43:45;;;;;;;23.67;11.85;;;;;;;25.04;49.76;69557.47;5030388;28;20083;-90
2022/07/20 06:46:10;;;;;;;16.70;11.52;;;;;;;25.14;50.23;69565.66;5047268;28;20087;-91
2022/07/20 06:48:36;;;;;;;16.23;12.15;;;;;;;25.23;49.97;69578.72;5047023;28;20416;-90
2022/07/20 06:51:02;;;;;;;17.05;12.35;;;;;;;25.26;50.54;69587.03;5033289;28;20568;-90
2022/07/20 06:53:27;;;;;;;21.10;13.40;;;;;;;25.36;50.61;69599.09;5049190;28;20128;-90
2022/07/20 06:55:53;;;;;;;17.60;12.80;;;;;;;25.42;50.78;69599.94;5049974;28;20520;-90
2022/07/20 06:58:18;;;;;;;19.23;12.65;;;;;;;25.51;50.63;69609.69;5031010;28;20033;-91
2022/07/20 07:00:43;;;;;;;19.05;12.75;;;;;;;25.60;51.24;69625.47;5031548;28;20040;-90
2022/07/20 07:03:09;;;;;;;20.30;13.30;;;;;;;25.61;50.93;69626.63;5048877;28;20120;-90
2022/07/20 07:05:34;;;;;;;18.63;13.30;;;;;;;25.62;51.54;69627.78;5016077;28;20044;-90
2022/07/20 07:08:01;;;;;;;21.25;13.82;;;;;;;25.61;51.87;69621.75;5034987;28;20064;-91
2022/07/20 07:10:26;;;;;;;23.45;14.48;;;;;;;25.63;52.61;69624.03;5048510;28;20502;-90
2022/07/20 07:12:52;;;;;;;19.17;13.77;;;;;;;25.70;52.99;69631.50;5045277;28;20075;-89
2022/07/20 07:15:17;;;;;;;24.83;16.10;;;;;;;25.77;53.32;69644.41;5049621;28;20066;-91
2022/07/20 07:17:43;;;;;;;20.15;14.73;;;;;;;;;;5036259;28;20040;-90
2022/07/20 07:20:09;;;;;;;27.35;15.93;;;;;;;25.91;53.32;69663.25;5052827;28;20132;-90
2022/07/20 07:22:34;;;;;;;25.45;15.73;;;;;;;25.94;53.72;69663.38;5050131;28;20080;-91
2022/07/20 07:25:00;;;;;;;24.73;15.48;;;;;;;25.88;54.16;69657.63;5049131;28;20040;-90
2022/07/20 07:27:25;;;;;;;32.80;16.85;;;;;;;25.94;54.16;69658.50;5031122;28;20456;-90
2022/07/20 07:29:50;;;;;;;26.13;17.95;;;;;;;;;;5042798;28;20069;-91
2022/07/20 07:32:16;;;;;;;22.77;17.58;;;;;;;;;;5031795;28;20117;-90
2022/07/20 07:34:41;;;;;;;25.80;18.07;;;;;;;;;;5039125;28;20412;-90
2022/07/20 07:37:06;;;;;;;28.63;18.90;;;;;;;26.01;56.84;69666.53;5046182;28;20346;-90
2022/07/20 07:39:32;;;;;;;28.80;19.50;;;;;;;26.02;57.56;69673.13;5081189;22;20684;-77
2022/07/20 07:41:57;;;;;;;27.85;20.77;;;;;;;;;;5061089;28;20404;-77
2022/07/20 07:44:23;;;;;;;28.90;21.57;;;;;;;26.11;58.71;69677.44;5056974;28;20169;-77
2022/07/20 07:46:48;;;;;;;29.42;21.30;;;;;;;;;;5055670;28;20656;-77
2022/07/20 07:49:13;;;;;;;31.30;24.02;;;;;;;26.31;59.01;69705.84;5053152;28;20040;-77
2022/07/20 07:51:40;;;;;;;32.17;24.10;;;;;;;26.39;59.49;69706.28;5060349;28;20054;-77
2022/07/20 07:54:06;;;;;;;34.97;23.80;;;;;;;26.48;59.27;69724.25;5065396;28;20110;-77
2022/07/20 07:56:32;;;;;;;37.45;25.52;;;;;;;26.42;60.13;69712.47;5066391;28;20036;-76
2022/07/20 07:58:57;;;;;;;36.83;25.83;;;;;;;26.48;59.96;69724.25;5065350;28;20661;-77
2022/07/20 08:01:24;;;;;;;33.00;24.15;;;;;;;26.60;59.42;69726.53;5063053;28;20120;-77
2022/07/20 08:03:49;;;;;;;37.50;26.60;;;;;;;;;;5060512;28;20040;-77
2022/07/20 08:06:15;;;;;;;34.07;26.73;;;;;;;;;;5058981;28;20055;-77
2022/07/20 08:08:40;;;;;;;37.67;26.95;;;;;;;26.65;59.37;69737.75;5057473;28;20278;-77
2022/07/20 08:11:06;;;;;;;36.90;26.83;;;;;;;26.73;56.51;69746.94;5066450;28;20036;-77
2022/07/20 08:13:31;;;;;;;37.45;27.85;;;;;;;26.86;57.62;69759.13;5066608;28;20112;-76
2022/07/20 08:15:56;;;;;;;34.60;26.00;;;;;;;;;;5067716;28;20049;-77
2022/07/20 08:18:22;;;;;;;32.97;26.92;;;;;;;26.97;56.17;69779.41;5066080;28;20124;-76
2022/07/20 08:20:47;;;;;;;33.80;25.98;;;;;;;26.97;56.11;69779.97;5047689;28;20040;-77
2022/07/20 08:23:13;;;;;;;35.40;25.40;;;;;;;;;;5061248;28;20166;-77
2022/07/20 08:25:38;;;;;;;34.60;26.20;;;;;;;26.90;55.28;69771.94;5064023;28;20107;-77
2022/07/20 08:28:15;;;;;;;38.58;27.65;;;;;;;27.00;54.33;69775.22;5042853;28;20295;-77
2022/07/20 08:30:43;;;;;;;32.75;26.23;;;;;;;27.08;53.58;69794.75;5054285;28;20052;-77
2022/07/20 08:33:11;;;;;;;32.70;24.98;;;;;;;27.07;53.62;69782.66;5059103;28;20051;-77
2022/07/20 08:35:37;;;;;;;36.15;25.90;;;;;;;27.13;52.96;69792.31;5063418;28;20080;-77
2022/07/20 08:38:02;;;;;;;34.05;25.13;;;;;;;;;;5057577;28;20032;-77
2022/07/20 08:40:28;;;;;;;35.63;25.02;;;;;;;27.40;52.68;69827.66;5063085;28;20044;-77
2022/07/20 08:42:54;;;;;;;31.08;25.15;;;;;;;27.43;52.13;69825.66;5058807;28;20045;-76
2022/07/20 08:45:20;;;;;;;33.25;24.83;;;;;;;27.52;52.36;69835.97;5062997;28;20410;-77
2022/07/20 08:47:46;;;;;;;33.72;27.13;;;;;;;27.51;51.47;69834.28;5064712;28;20040;-77
2022/07/20 08:50:12;;;;;;;34.88;26.00;;;;;;;27.50;51.69;69830.38;5062829;28;20060;-77
2022/07/20 08:52:38;;;;;;;32.60;25.67;;;;;;;;;;5064934;28;20051;-77
2022/07/20 08:55:05;;;;;;;34.28;24.80;;;;;;;27.73;51.85;69853.50;5064724;28;20041;-77
2022/07/20 08:57:31;;;;;;;33.83;26.35;;;;;;;;;;5064207;28;20051;-77
2022/07/20 08:59:56;;;;;;;30.80;24.98;;;;;;;27.80;50.66;69867.63;5065288;28;20048;-77
2022/07/20 09:02:22;;;;;;;29.63;23.63;;;;;;;27.77;50.67;69864.16;5063449;28;20559;-77
2022/07/20 09:04:50;;;;;;;30.20;24.98;;;;;;;27.82;50.83;69875.41;5064781;28;20041;-77
2022/07/20 09:07:15;;;;;;;32.33;24.65;;;;;;;28.04;50.96;69894.63;5062402;28;20052;-77
2022/07/20 09:09:41;;;;;;;28.20;22.80;;;;;;;28.21;49.79;69919.06;5066150;28;20041;-77
2022/07/20 09:12:06;;;;;;;32.60;23.20;;;;;;;;;;5061391;28;20060;-77
2022/07/20 09:14:47;;;;;;;32.15;21.92;;;;;;;28.17;49.12;69913.88;5062516;28;20048;-77
2022/07/20 09:17:18;;;;;;;30.50;23.35;;;;;;;28.07;49.73;69895.31;5063173;28;20036;-77
2022/07/20 09:20:16;;;;;;;31.15;22.73;;;;;;;28.22;48.71;69914.16;5054601;28;20032;-77
2022/07/20 09:22:41;;;;;;;31.77;21.83;;;;;;;;;;4993948;28;20097;-77
2022/07/20 09:25:15;;;;;;;27.27;21.63;;;;;;;28.26;48.29;69918.78;5058937;28;20124;-77
2022/07/20 09:27:42;;;;;;;27.77;22.42;;;;;;;28.41;48.67;69933.28;5043824;28;20050;-77
2022/07/20 09:30:15;;;;;;;28.30;22.90;;;;;;;;;;5062910;28;20045;-77
2022/07/20 09:32:57;;;;;;;24.85;20.55;;;;;;;28.52;46.18;69954.16;5062951;28;20047;-77
2022/07/20 09:35:34;;;;;;;24.92;20.13;;;;;;;28.47;46.20;69942.94;5059181;28;20036;-77
2022/07/20 09:38:04;;;;;;;27.52;20.25;;;;;;;28.54;46.60;69951.00;5058263;28;20036;-77
2022/07/20 09:40:45;;;;;;;25.67;20.92;;;;;;;28.74;45.94;69978.31;5056840;28;20056;-77
2022/07/20 09:43:26;;;;;;;30.35;21.17;;;;;;;;;;5058638;28;20412;-77
2022/07/20 09:45:54;;;;;;;28.15;19.95;;;;;;;28.90;44.79;69985.75;5061584;28;20079;-77
2022/07/20 09:48:23;;;;;;;26.30;19.48;;;;;;;28.87;44.04;69987.78;5059178;28;20056;-77
2022/07/20 09:50:49;;;;;;;22.27;18.98;;;;;;;28.99;44.77;69998.25;5045528;28;20051;-77
2022/07/20 09:53:14;;;;;;;25.73;19.90;;;;;;;28.92;44.57;69990.78;5066130;28;20445;-77
2022/07/20 09:55:41;;;;;;;24.15;18.98;;;;;;;;;;5066895;28;20036;-77
2022/07/20 09:58:07;;;;;;;22.70;18.98;;;;;;;;;;5065102;28;20039;-77
2022/07/20 10:00:33;;;;;;;26.33;18.45;;;;;;;28.89;44.97;69990.09;5061101;28;20040;-78
2022/07/20 10:03:00;;;;;;;26.70;19.08;;;;;;;28.84;45.02;69984.31;5066344;28;20044;-77
2022/07/20 10:05:32;;;;;;;22.75;18.02;;;;;;;28.96;45.02;69995.38;5064517;28;20040;-77
2022/07/20 10:08:00;;;;;;;22.70;18.90;;;;;;;;;;5065243;28;20040;-77
2022/07/20 10:10:26;;;;;;;22.17;18.33;;;;;;;29.08;45.46;70008.06;5066587;28;20048;-77
2022/07/20 10:12:51;;;;;;;22.17;18.90;;;;;;;29.14;45.31;70017.69;5066634;28;20397;-77
2022/07/20 10:15:21;;;;;;;23.13;17.92;;;;;;;29.20;44.52;70022.44;5067662;28;20123;-77
2022/07/20 10:17:47;;;;;;;20.73;16.80;;;;;;;29.20;44.46;70025.19;5068159;28;20075;-77
2022/07/20 10:20:36;;;;;;;24.00;17.10;;;;;;;29.21;43.92;70026.34;5067214;28;20032;-77
2022/07/20 10:23:13;;;;;;;24.27;18.52;;;;;;;;;;5046256;28;20040;-77
2022/07/20 10:25:39;;;;;;;24.25;19.20;;;;;;;29.36;44.19;70043.00;5067577;28;20044;-77
2022/07/20 10:28:23;;;;;;;27.13;18.55;;;;;;;29.49;44.06;70054.63;5065398;28;20063;-77
2022/07/20 10:31:03;;;;;;;22.48;17.30;;;;;;;29.48;44.24;70056.25;5039245;28;20075;-77
2022/07/20 10:33:30;;;;;;;20.98;17.40;;;;;;;29.38;43.65;70039.84;5068390;28;20443;-78
2022/07/20 10:36:41;;;;;;;27.15;18.20;;;;;;;29.41;44.29;70054.25;5066453;28;20124;-77
2022/07/20 10:38:42;;;;;;;23.92;18.42;;;;;;;29.41;43.86;70048.78;5068157;28;20124;-77
2022/07/20 10:44:21;;;;;;;23.40;16.95;;;;;;;29.52;44.03;70065.75;5057350;28;20067;-77
2022/07/20 10:46:47;;;;;;;27.58;17.85;;;;;;;;;;5064268;28;20105;-77
2022/07/20 10:49:14;;;;;;;21.83;17.50;;;;;;;29.87;43.23;70100.56;5069976;28;20036;-77
2022/07/20 10:51:39;;;;;;;22.15;17.73;;;;;;;29.85;42.96;70097.69;5065011;28;20445;-77
2022/07/20 10:54:32;;;;;;;23.85;18.05;;;;;;;30.01;42.70;70115.53;5069840;28;20060;-77
2022/07/20 10:56:58;;;;;;;21.50;17.35;;;;;;;;;;5067953;28;20094;-77
2022/07/20 10:59:23;;;;;;;20.10;17.08;;;;;;;30.05;43.11;70117.38;5069100;28;20048;-77
2022/07/20 11:01:49;;;;;;;21.27;16.80;;;;;;;30.01;41.94;70112.78;5069516;28;20048;-78
2022/07/20 11:04:15;;;;;;;21.08;17.00;;;;;;;29.77;42.87;70085.75;5070019;28;20115;-78
2022/07/20 11:06:41;;;;;;;19.38;15.05;;;;;;;29.80;42.43;70091.94;5069308;28;20398;-78
2022/07/20 11:09:07;;;;;;;22.23;15.02;;;;;;;;;;5069982;28;20052;-78
2022/07/20 11:11:34;;;;;;;26.48;15.52;;;;;;;30.11;43.12;70127.59;5068096;28;20685;-78
2022/07/20 11:14:05;;;;;;;21.50;16.30;;;;;;;30.19;42.61;70135.69;5070301;28;20041;-78
2022/07/20 11:16:32;;;;;;;20.27;16.00;;;;;;;30.09;42.79;70124.72;5069886;28;20068;-78
2022/07/20 11:18:59;;;;;;;20.10;15.90;;;;;;;29.99;42.82;70111.06;5065506;28;20045;-78
2022/07/20 11:21:32;;;;;;;20.73;14.20;;;;;;;30.21;42.48;70137.97;5065265;28;20082;-78
2022/07/20 11:23:58;;;;;;;18.05;14.40;;;;;;;30.37;42.39;70153.09;5070616;28;20044;-77
2022/07/20 11:26:24;;;;;;;16.88;13.60;;;;;;;30.40;41.53;70153.78;5072525;28;20037;-77
2022/07/20 11:28:59;;;;;;;17.15;14.40;;;;;;;30.23;42.32;70140.28;5050303;28;20812;-77
2022/07/20 11:31:28;;;;;;;18.85;13.05;;;;;;;;;;5045883;28;20099;-78
2022/07/20 11:33:56;;;;;;;17.50;12.77;;;;;;;30.34;41.74;70150.22;5063749;28;20044;-77
2022/07/20 11:36:30;;;;;;;14.40;12.07;;;;;;;30.34;41.28;70159.03;5066309;28;20926;-78
2022/07/20 11:39:00;;;;;;;17.77;13.77;;;;;;;30.42;41.32;70156.69;5067720;28;20082;-78
2022/07/20 11:41:29;;;;;;;15.65;11.95;;;;;;;30.18;41.50;70129.03;5051372;28;20036;-78
2022/07/20 11:43:54;;;;;;;15.88;11.27;;;;;;;30.15;42.11;70126.13;5067496;28;20040;-78
2022/07/20 11:46:27;;;;;;;20.85;12.43;;;;;;;30.07;41.76;70116.94;5065962;28;20699;-78
2022/07/20 11:49:04;;;;;;;14.52;10.90;;;;;;;30.09;42.27;70124.72;5062609;28;20080;-78
2022/07/20 11:51:32;;;;;;;11.13;3.13;;;;;;;30.25;42.29;70140.44;5060562;28;20059;-77
2022/07/20 11:53:58;;;;;;;4.20;2.75;;;;;;;30.44;42.04;70163.88;5064211;28;20044;-77
2022/07/20 11:56:27;;;;;;;12.00;7.60;;;;;;;30.61;41.63;70182.88;5058861;28;20036;-77
2022/07/20 11:58:55;;;;;;;12.40;8.98;;;;;;;30.81;41.26;70211.44;5061959;28;20239;-78
2022/07/20 12:01:24;;;;;;;15.80;9.68;;;;;;;31.01;40.89;70228.97;5061878;28;20044;-77